Amity, Missouri
Current Conditions -  °F | °C
As of 9:53 AM on Friday 28 Nov 2014 (Local Time) from KSTJ Reporting Station
Clear Clear  
Wind Chill: 35°   Ceiling: Unl
Heat Index: 42°   Visibility: 10mi
Dew Point: 28°   Wind: 14mph
Humidity: 58%   Direction: 220°SW
Pressure: 29.94"   Gusts: NA
Location:  39.87°N, 94.44°W
Report Text: KSTJ 281553Z 22012KT 10SM CLR 06/M02 A2994 RMK AO2 SLP143 T00561022
Loading
Personal Weather Stations






























Interactive Weather Map New forecast layout! Learn more

10-Day Weather Forecast

Advertisements
Track Severe Weather on mobile